Time;durP1;ratioP1;P1;durP2;ratioP2;P2;SDS_P1;SDS_P2;PMS_P1;PMS_P2;Temp;Humidity;BMP_temperature;BMP_pressure;BME280_temperature;BME280_humidity;BME280_pressure;Samples;Min_cycle;Max_cycle;Signal;HPM_P1;HPM_P2
2022/07/04 00:03:00;;;;;;;2.63;2.42;;;18.90;99.90;;;;;;6190218;28;20274;-68
2022/07/04 00:06:05;;;;;;;2.97;2.70;;;18.80;99.90;;;;;;6169210;28;20299;-67
2022/07/04 00:09:10;;;;;;;2.30;2.20;;;18.80;99.90;;;;;;6166425;28;20302;-67
2022/07/04 00:12:17;;;;;;;2.22;2.17;;;18.80;99.90;;;;;;6166596;29;20274;-68
2022/07/04 00:15:23;;;;;;;3.05;2.53;;;18.80;99.90;;;;;;6166072;29;20274;-67
2022/07/04 00:18:28;;;;;;;2.50;2.30;;;18.70;99.90;;;;;;6166575;28;20274;-67
2022/07/04 00:21:33;;;;;;;3.60;2.47;;;18.70;99.90;;;;;;6165249;28;20283;-68
2022/07/04 00:24:39;;;;;;;2.78;2.63;;;18.70;99.90;;;;;;6166383;28;20477;-67
2022/07/04 00:27:45;;;;;;;3.63;2.40;;;18.70;99.90;;;;;;6166289;29;20279;-67
2022/07/04 00:30:51;;;;;;;2.50;2.30;;;18.60;99.90;;;;;;6164960;28;20275;-68
2022/07/04 00:33:56;;;;;;;2.53;2.35;;;18.70;99.90;;;;;;6165891;29;20274;-67
2022/07/04 00:37:01;;;;;;;3.10;2.10;;;18.60;99.90;;;;;;6165686;28;20557;-67
2022/07/04 00:40:07;;;;;;;2.25;2.10;;;18.60;99.90;;;;;;6165554;29;20274;-67
2022/07/04 00:43:23;;;;;;;2.78;2.58;;;18.60;99.90;;;;;;6165802;29;20554;-67
2022/07/04 00:46:28;;;;;;;2.20;2.10;;;18.60;99.90;;;;;;6165423;28;20472;-67
2022/07/04 00:49:35;;;;;;;2.42;2.20;;;18.60;99.90;;;;;;6165301;29;20274;-68
2022/07/04 00:52:40;;;;;;;2.17;2.08;;;18.60;99.90;;;;;;6165304;29;20270;-67
2022/07/04 00:55:46;;;;;;;2.25;2.20;;;18.60;99.90;;;;;;6165672;28;20274;-67
2022/07/04 00:58:53;;;;;;;3.80;2.30;;;18.50;99.90;;;;;;6165419;29;20298;-68
2022/07/04 01:01:59;;;;;;;2.70;2.50;;;18.60;99.90;;;;;;6165250;29;20274;-67
2022/07/04 01:05:06;;;;;;;3.25;2.42;;;18.60;99.90;;;;;;6165322;29;20291;-67
2022/07/04 01:08:17;;;;;;;2.08;2.08;;;18.50;99.90;;;;;;6167416;28;20279;-67
2022/07/04 01:11:22;;;;;;;2.63;2.40;;;18.40;99.90;;;;;;6189413;28;20293;-67
2022/07/04 01:14:29;;;;;;;2.50;2.30;;;18.40;99.90;;;;;;6188550;28;20273;-67
2022/07/04 01:17:35;;;;;;;2.45;2.28;;;18.40;99.90;;;;;;6188831;28;20274;-67
2022/07/04 01:20:42;;;;;;;2.97;2.17;;;18.30;99.90;;;;;;6188635;28;20269;-67
2022/07/04 01:23:47;;;;;;;6.68;2.20;;;18.40;99.90;;;;;;6188939;28;20273;-67
2022/07/04 01:26:52;;;;;;;2.15;2.05;;;18.40;99.90;;;;;;6188174;28;20293;-67
2022/07/04 01:29:58;;;;;;;2.40;2.20;;;18.30;99.90;;;;;;6188584;28;20282;-67
2022/07/04 01:33:03;;;;;;;2.28;2.20;;;18.40;99.90;;;;;;6188748;28;20273;-68
2022/07/04 01:36:11;;;;;;;2.05;1.88;;;18.30;99.90;;;;;;6188449;28;20278;-68
2022/07/04 01:39:16;;;;;;;2.15;2.03;;;18.40;99.90;;;;;;6188130;28;20278;-67
2022/07/04 01:42:22;;;;;;;2.13;2.03;;;18.30;99.90;;;;;;6188108;28;20453;-67
2022/07/04 01:45:27;;;;;;;2.13;2.03;;;18.30;99.90;;;;;;6187782;28;20477;-67
2022/07/04 01:48:32;;;;;;;1.92;1.83;;;18.20;99.90;;;;;;6188376;28;20342;-67
2022/07/04 01:51:45;;;;;;;2.22;1.92;;;18.30;99.90;;;;;;6188327;28;20594;-68
2022/07/04 01:54:51;;;;;;;2.15;2.00;;;18.30;99.90;;;;;;6188356;28;20269;-67
2022/07/04 01:57:56;;;;;;;2.05;1.95;;;18.30;99.90;;;;;;6188268;28;20274;-67
2022/07/04 02:04:25;;;;;;;1.95;1.92;;;18.30;99.90;;;;;;6180808;28;20270;-67
2022/07/04 02:07:31;;;;;;;4.35;2.05;;;18.30;99.90;;;;;;6164363;29;20293;-67
2022/07/04 02:10:37;;;;;;;2.10;2.00;;;18.30;99.90;;;;;;6163869;29;20303;-67
2022/07/04 02:13:41;;;;;;;2.70;2.10;;;18.20;99.90;;;;;;6164017;29;20274;-67
2022/07/04 02:16:46;;;;;;;2.28;1.83;;;18.30;99.90;;;;;;6163908;29;20565;-67
2022/07/04 02:19:52;;;;;;;2.05;1.83;;;18.30;99.90;;;;;;6163884;29;20275;-67
2022/07/04 02:22:58;;;;;;;2.10;1.88;;;18.30;99.90;;;;;;6164210;29;20561;-68
2022/07/04 02:26:04;;;;;;;2.40;1.70;;;18.30;99.90;;;;;;6164369;28;20310;-68
2022/07/04 02:29:09;;;;;;;2.00;1.90;;;18.30;99.90;;;;;;6164160;29;20278;-68
2022/07/04 02:32:15;;;;;;;3.60;1.95;;;18.30;99.90;;;;;;6164356;28;20278;-67
2022/07/04 02:35:20;;;;;;;3.15;2.25;;;18.30;99.90;;;;;;6163860;29;20290;-67
2022/07/04 02:38:26;;;;;;;2.00;1.90;;;18.30;99.90;;;;;;6164183;28;20278;-68
2022/07/04 02:41:32;;;;;;;2.15;1.70;;;18.30;99.90;;;;;;6163475;29;20274;-68
2022/07/04 02:44:37;;;;;;;2.60;1.83;;;18.30;99.90;;;;;;6163995;29;20274;-67
2022/07/04 02:47:42;;;;;;;1.95;1.83;;;18.30;99.90;;;;;;6163623;28;20346;-67
2022/07/04 02:50:47;;;;;;;1.58;1.50;;;18.30;99.90;;;;;;6164091;28;20274;-67
2022/07/04 02:53:54;;;;;;;2.40;1.77;;;18.30;99.90;;;;;;6164046;28;20278;-67
2022/07/04 02:56:59;;;;;;;1.98;1.88;;;18.30;99.90;;;;;;6168271;29;20278;-67
2022/07/04 03:00:06;;;;;;;3.55;1.90;;;18.30;99.90;;;;;;6168448;28;20278;-67
2022/07/04 03:03:13;;;;;;;1.60;1.60;;;18.30;99.90;;;;;;6168345;28;20275;-67
2022/07/04 03:06:18;;;;;;;2.72;1.92;;;18.40;99.90;;;;;;6167785;28;20286;-67
2022/07/04 03:09:26;;;;;;;1.92;1.83;;;18.40;99.90;;;;;;6178648;28;20305;-67
2022/07/04 03:12:31;;;;;;;2.08;1.98;;;18.40;99.90;;;;;;6191858;28;20274;-67
2022/07/04 03:15:37;;;;;;;2.20;1.92;;;18.50;99.90;;;;;;6191805;28;20273;-67
2022/07/04 03:18:42;;;;;;;2.45;2.30;;;18.40;99.90;;;;;;6191722;28;20277;-67
2022/07/04 03:21:47;;;;;;;1.98;1.90;;;18.40;99.90;;;;;;6191654;28;20274;-68
2022/07/04 03:24:54;;;;;;;4.72;2.38;;;18.50;99.90;;;;;;6191514;28;20307;-67
2022/07/04 03:27:59;;;;;;;2.10;1.98;;;18.50;99.90;;;;;;6191454;28;20294;-67
2022/07/04 03:31:04;;;;;;;2.45;2.00;;;18.60;99.90;;;;;;6191011;28;20557;-67
2022/07/04 03:34:10;;;;;;;3.20;2.00;;;18.50;99.90;;;;;;6191431;28;20273;-67
2022/07/04 03:37:15;;;;;;;2.08;2.00;;;18.60;99.90;;;;;;6190925;28;20471;-67
2022/07/04 03:40:22;;;;;;;3.65;2.10;;;18.70;99.90;;;;;;6191159;28;20273;-68
2022/07/04 03:43:28;;;;;;;2.03;1.92;;;18.80;99.90;;;;;;6190900;28;20273;-67
2022/07/04 03:46:33;;;;;;;2.15;2.15;;;18.80;99.90;;;;;;6191222;28;20277;-67
2022/07/04 03:49:38;;;;;;;2.17;2.03;;;18.80;99.90;;;;;;6190671;28;20561;-67
2022/07/04 03:52:43;;;;;;;2.20;2.10;;;18.80;99.90;;;;;;6190610;28;20274;-67
2022/07/04 03:55:50;;;;;;;2.05;1.95;;;18.80;99.90;;;;;;6190432;28;20269;-67
2022/07/04 03:58:55;;;;;;;3.60;2.17;;;18.90;99.90;;;;;;6173552;28;20277;-67
2022/07/04 04:02:00;;;;;;;2.92;2.10;;;18.90;99.90;;;;;;6190546;28;20277;-67
2022/07/04 04:08:30;;;;;;;2.30;2.20;;;19.00;99.90;;;;;;6166610;28;20310;-67
2022/07/04 04:11:37;;;;;;;2.30;2.20;;;19.00;99.90;;;;;;6166311;29;20341;-67
2022/07/04 04:14:42;;;;;;;2.10;2.00;;;19.00;99.90;;;;;;6166644;29;20274;-67
2022/07/04 04:17:48;;;;;;;2.85;2.10;;;19.10;99.90;;;;;;6166051;29;20278;-67
2022/07/04 04:20:53;;;;;;;2.30;2.10;;;19.10;99.90;;;;;;6166514;28;20526;-67
2022/07/04 04:23:58;;;;;;;6.25;2.20;;;19.10;99.90;;;;;;6166318;29;20466;-67
2022/07/04 04:27:06;;;;;;;2.47;1.90;;;19.20;99.90;;;;;;6166175;29;20274;-68
2022/07/04 04:30:12;;;;;;;4.18;2.03;;;19.30;99.90;;;;;;6166077;28;20274;-67
2022/07/04 04:33:17;;;;;;;2.65;1.58;;;19.20;99.90;;;;;;6165770;29;20278;-67
2022/07/04 04:36:23;;;;;;;2.15;2.00;;;19.20;99.90;;;;;;6165945;29;20274;-68
2022/07/04 04:39:28;;;;;;;2.70;1.80;;;19.30;99.90;;;;;;6165736;28;20282;-67
2022/07/04 04:42:36;;;;;;;2.85;1.80;;;19.40;99.90;;;;;;6166139;29;20278;-67
2022/07/04 04:45:41;;;;;;;1.95;1.80;;;19.40;99.90;;;;;;6166028;28;20275;-68
2022/07/04 04:48:46;;;;;;;2.25;1.52;;;19.40;99.90;;;;;;6165606;29;20298;-68
2022/07/04 04:51:52;;;;;;;5.15;1.80;;;19.50;99.90;;;;;;6165784;29;20275;-68
2022/07/04 04:54:57;;;;;;;3.72;1.60;;;19.50;99.90;;;;;;6165534;29;20457;-68
2022/07/04 04:58:03;;;;;;;1.80;1.70;;;19.60;99.90;;;;;;6165638;28;20283;-67
2022/07/04 05:01:09;;;;;;;2.85;1.83;;;19.60;99.90;;;;;;6165157;29;20274;-68
2022/07/04 05:04:35;;;;;;;1.65;1.60;;;19.60;99.90;;;;;;6164937;29;20279;-68
2022/07/04 05:07:40;;;;;;;1.90;1.80;;;19.90;99.90;;;;;;6165171;28;20278;-68
2022/07/04 05:10:45;;;;;;;2.45;2.00;;;19.90;99.90;;;;;;6186699;28;20493;-68
2022/07/04 05:13:52;;;;;;;1.80;1.75;;;20.00;99.90;;;;;;6188477;28;20274;-67
2022/07/04 05:16:57;;;;;;;5.80;1.90;;;20.20;99.90;;;;;;6188420;28;20561;-68
2022/07/04 05:20:03;;;;;;;2.97;1.80;;;20.30;99.90;;;;;;6187866;28;20449;-68
2022/07/04 05:23:11;;;;;;;1.83;1.70;;;20.50;99.90;;;;;;6188221;28;20278;-67
2022/07/04 05:26:17;;;;;;;4.22;1.65;;;20.60;99.90;;;;;;6188648;28;20294;-68
2022/07/04 05:29:23;;;;;;;1.77;1.67;;;21.10;99.90;;;;;;6188597;28;20289;-68
2022/07/04 05:32:29;;;;;;;2.88;1.50;;;21.20;99.90;;;;;;6188429;28;20274;-66
2022/07/04 05:35:34;;;;;;;9.88;1.70;;;21.30;99.90;;;;;;6188042;28;20289;-67
2022/07/04 05:38:39;;;;;;;3.63;2.00;;;21.40;99.90;;;;;;6188432;28;20274;-67
2022/07/04 05:41:44;;;;;;;4.10;1.70;;;21.50;99.90;;;;;;6188425;28;20278;-67
2022/07/04 05:44:51;;;;;;;2.22;1.60;;;21.60;99.90;;;;;;6187615;28;20274;-67
2022/07/04 05:47:56;;;;;;;5.47;1.70;;;21.70;99.90;;;;;;6187633;28;20273;-67
2022/07/04 05:51:01;;;;;;;1.83;1.83;;;21.70;99.90;;;;;;6187767;28;20269;-67
2022/07/04 05:54:07;;;;;;;3.28;1.80;;;21.50;99.90;;;;;;6187738;28;20581;-67
2022/07/04 05:57:12;;;;;;;2.70;1.73;;;21.50;99.90;;;;;;6187586;28;20460;-67
2022/07/04 06:00:18;;;;;;;5.43;2.10;;;21.60;99.90;;;;;;6187709;28;20584;-68
2022/07/04 06:03:24;;;;;;;1.83;1.73;;;21.80;99.90;;;;;;6188020;28;20274;-67
2022/07/04 06:06:30;;;;;;;3.05;1.73;;;21.90;99.90;;;;;;6188209;28;20273;-67
2022/07/04 06:09:36;;;;;;;4.97;2.10;;;22.10;99.90;;;;;;6187398;28;20305;-67
2022/07/04 06:12:41;;;;;;;2.15;1.48;;;22.00;99.90;;;;;;6187544;28;20274;-67
2022/07/04 06:15:47;;;;;;;1.88;1.77;;;21.90;99.90;;;;;;6187888;28;20274;-67
2022/07/04 06:18:53;;;;;;;5.47;1.90;;;21.80;99.90;;;;;;6187963;28;20390;-68
2022/07/04 06:21:58;;;;;;;4.13;1.88;;;21.60;99.90;;;;;;6187910;28;20279;-67
2022/07/04 06:25:03;;;;;;;2.38;1.70;;;21.70;99.90;;;;;;6187840;28;20270;-67
2022/07/04 06:28:14;;;;;;;2.25;1.85;;;21.60;99.90;;;;;;6187668;28;20270;-68
2022/07/04 06:31:41;;;;;;;8.48;1.83;;;21.50;99.90;;;;;;6192638;28;20274;-67
2022/07/04 06:38:12;;;;;;;2.00;1.95;;;21.30;99.90;;;;;;6191884;28;20274;-67
2022/07/04 06:41:18;;;;;;;2.08;1.75;;;21.20;99.90;;;;;;6191810;28;20278;-67
2022/07/04 06:44:23;;;;;;;2.75;1.83;;;21.10;99.90;;;;;;6192269;28;20274;-67
2022/07/04 06:47:30;;;;;;;2.70;1.80;;;21.40;99.90;;;;;;6192212;28;20273;-67
2022/07/04 06:50:36;;;;;;;5.82;1.70;;;21.60;99.90;;;;;;6191548;28;20293;-67
2022/07/04 06:53:45;;;;;;;4.00;2.17;;;22.00;99.90;;;;;;6191559;28;20553;-70
2022/07/04 06:56:51;;;;;;;2.08;1.95;;;22.20;99.90;;;;;;6191505;28;20273;-68
2022/07/04 07:00:17;;;;;;;4.00;1.88;;;22.10;99.90;;;;;;6192030;28;20325;-68
2022/07/04 07:03:24;;;;;;;3.63;2.15;;;22.20;99.90;;;;;;6191460;28;20277;-68
2022/07/04 07:06:29;;;;;;;2.67;2.30;;;22.20;99.90;;;;;;6168032;29;20271;-68
2022/07/04 07:09:34;;;;;;;3.67;2.75;;;22.30;99.90;;;;;;6168003;28;20306;-68
2022/07/04 07:12:40;;;;;;;6.25;2.22;;;22.40;99.90;;;;;;6167299;29;20464;-68
2022/07/04 07:15:46;;;;;;;2.75;2.53;;;22.40;99.90;;;;;;6167626;29;20203;-68
2022/07/04 07:18:53;;;;;;;6.55;2.78;;;22.40;99.90;;;;;;6167561;29;20274;-68
2022/07/04 07:21:58;;;;;;;2.10;1.98;;;22.00;99.90;;;;;;6167631;29;20282;-68
2022/07/04 07:25:04;;;;;;;1.90;1.90;;;22.00;99.90;;;;;;6167140;29;20279;-68
2022/07/04 07:28:11;;;;;;;3.25;1.95;;;21.80;99.90;;;;;;6167165;29;20279;-68
2022/07/04 07:31:17;;;;;;;2.45;2.10;;;21.90;99.90;;;;;;6167408;29;20294;-68
2022/07/04 07:34:24;;;;;;;4.30;1.80;;;21.90;99.90;;;;;;6166923;29;20279;-68
2022/07/04 07:37:31;;;;;;;5.40;2.10;;;21.70;99.90;;;;;;6167064;28;20274;-68
2022/07/04 07:40:36;;;;;;;3.70;1.60;;;21.80;99.90;;;;;;6166512;28;20294;-68
2022/07/04 07:43:41;;;;;;;2.60;1.63;;;21.90;99.90;;;;;;6167212;29;20274;-68
2022/07/04 07:46:46;;;;;;;1.70;1.70;;;22.00;99.90;;;;;;6167242;28;20270;-68
2022/07/04 07:49:53;;;;;;;5.40;1.90;;;21.90;99.90;;;;;;6167006;29;20597;-68
2022/07/04 07:52:58;;;;;;;4.18;1.60;;;21.90;99.90;;;;;;6166892;29;20282;-68
2022/07/04 07:56:04;;;;;;;2.55;1.52;;;21.90;99.90;;;;;;6166941;28;20270;-68
2022/07/04 07:59:10;;;;;;;2.60;1.77;;;21.80;99.90;;;;;;6167024;28;20274;-68
2022/07/04 08:02:15;;;;;;;3.55;1.30;;;21.90;99.90;;;;;;6166596;28;20463;-68
2022/07/04 08:05:20;;;;;;;3.30;1.60;;;21.90;99.90;;;;;;6167004;28;20266;-68
2022/07/04 08:08:26;;;;;;;1.80;1.67;;;21.90;99.90;;;;;;6169854;28;20301;-68
2022/07/04 08:11:31;;;;;;;3.17;1.80;;;22.00;99.90;;;;;;6190289;28;20297;-68
2022/07/04 08:14:36;;;;;;;2.03;1.70;;;22.00;99.90;;;;;;6190021;28;20458;-68
2022/07/04 08:17:41;;;;;;;2.28;1.77;;;22.00;99.90;;;;;;6190173;28;20274;-68
2022/07/04 08:20:49;;;;;;;3.40;1.70;;;22.00;99.90;;;;;;6189844;28;20557;-68
2022/07/04 08:24:06;;;;;;;2.05;1.60;;;22.10;99.90;;;;;;6190336;28;20277;-68
2022/07/04 08:27:23;;;;;;;2.15;1.60;;;22.10;99.90;;;;;;6189525;28;20395;-67
2022/07/04 08:30:36;;;;;;;6.05;1.73;;;22.20;99.90;;;;;;6189430;28;20293;-67
2022/07/04 08:33:42;;;;;;;1.75;1.65;;;22.20;99.90;;;;;;6189706;28;20273;-68
2022/07/04 08:36:48;;;;;;;8.85;1.48;;;22.00;99.90;;;;;;6189895;28;20270;-68
2022/07/04 08:39:53;;;;;;;7.78;1.70;;;22.10;99.90;;;;;;6189554;28;20277;-68
2022/07/04 08:42:59;;;;;;;1.08;1.08;;;22.20;99.90;;;;;;6188984;28;20473;-68
2022/07/04 08:46:05;;;;;;;1.90;1.63;;;22.20;99.90;;;;;;6189613;28;20274;-68
2022/07/04 08:49:32;;;;;;;2.53;1.60;;;22.10;99.90;;;;;;6189436;28;20278;-68
2022/07/04 08:52:41;;;;;;;1.58;1.40;;;22.20;99.90;;;;;;6188739;28;20480;-68
2022/07/04 08:59:11;;;;;;;1.50;1.40;;;22.20;99.90;;;;;;6189204;28;20274;-68
2022/07/04 09:02:18;;;;;;;2.17;1.45;;;22.00;99.90;;;;;;6189139;28;20585;-68
2022/07/04 09:05:23;;;;;;;2.88;1.52;;;22.10;99.90;;;;;;6174170;28;20267;-68
2022/07/04 09:08:30;;;;;;;3.25;1.48;;;22.10;99.90;;;;;;6164916;28;20601;-68
2022/07/04 09:11:35;;;;;;;1.40;1.33;;;22.10;99.90;;;;;;6164940;29;20485;-68
2022/07/04 09:14:41;;;;;;;2.58;1.35;;;22.10;99.40;;;;;;6164700;29;20274;-68
2022/07/04 09:17:47;;;;;;;2.53;1.30;;;22.10;99.90;;;;;;6165063;29;20275;-68
2022/07/04 09:20:53;;;;;;;5.25;1.40;;;22.10;99.90;;;;;;6164987;29;20278;-68
2022/07/04 09:24:01;;;;;;;1.50;1.40;;;22.00;99.90;;;;;;6164839;29;20302;-68
2022/07/04 09:27:06;;;;;;;2.72;1.30;;;21.90;99.90;;;;;;6164913;29;20274;-68
2022/07/04 09:30:13;;;;;;;1.88;1.20;;;21.90;99.90;;;;;;6164166;29;20279;-68
2022/07/04 09:33:21;;;;;;;4.75;1.27;;;21.80;99.00;;;;;;6164386;29;20412;-68
2022/07/04 09:36:28;;;;;;;4.25;1.40;;;21.70;99.00;;;;;;6164811;29;20270;-68
2022/07/04 09:39:38;;;;;;;1.40;1.30;;;21.80;99.10;;;;;;6164658;29;20274;-67
2022/07/04 09:42:43;;;;;;;5.32;1.40;;;21.80;98.70;;;;;;6164598;29;20278;-67
2022/07/04 09:45:55;;;;;;;1.40;1.30;;;21.80;98.80;;;;;;6164442;29;20278;-68
2022/07/04 09:49:01;;;;;;;1.30;1.25;;;21.80;98.50;;;;;;6164492;29;20271;-68
2022/07/04 09:52:07;;;;;;;1.98;1.85;;;21.70;99.10;;;;;;6164019;29;20457;-68
2022/07/04 09:55:14;;;;;;;1.58;1.50;;;21.80;98.60;;;;;;6164388;29;20574;-69
2022/07/04 09:58:19;;;;;;;3.90;1.38;;;21.70;98.80;;;;;;6164616;28;20287;-69
2022/07/04 10:01:25;;;;;;;1.50;1.40;;;21.70;99.40;;;;;;6164365;28;20274;-68
2022/07/04 10:04:44;;;;;;;9.23;1.60;;;21.60;99.50;;;;;;6163707;29;20271;-68
2022/07/04 10:07:49;;;;;;;5.80;1.50;;;21.70;99.70;;;;;;6163794;29;20274;-68
2022/07/04 10:10:59;;;;;;;2.13;1.70;;;21.70;99.90;;;;;;6186627;28;20297;-69
2022/07/04 10:14:13;;;;;;;8.55;2.13;;;21.80;99.70;;;;;;6187772;28;20306;-67
2022/07/04 10:17:18;;;;;;;1.70;1.63;;;21.90;99.90;;;;;;6187865;28;20270;-67
2022/07/04 10:20:25;;;;;;;1.58;1.33;;;21.80;99.90;;;;;;6187682;28;20281;-68
2022/07/04 10:23:31;;;;;;;3.03;1.77;;;21.70;99.90;;;;;;6187404;28;20568;-67
2022/07/04 10:26:38;;;;;;;2.45;1.30;;;21.70;99.90;;;;;;6187336;28;20273;-67
2022/07/04 10:29:43;;;;;;;3.63;1.75;;;21.70;99.90;;;;;;6187681;28;20281;-68
2022/07/04 10:32:50;;;;;;;1.73;1.60;;;21.60;99.90;;;;;;6187539;28;20298;-67
2022/07/04 10:35:57;;;;;;;3.90;1.73;;;21.50;99.90;;;;;;6187715;28;20270;-68
2022/07/04 10:39:04;;;;;;;3.08;1.50;;;21.50;99.90;;;;;;6187734;28;20274;-68
2022/07/04 10:42:24;;;;;;;1.85;1.50;;;21.30;99.90;;;;;;6187698;28;20572;-68
2022/07/04 10:45:33;;;;;;;1.88;1.67;;;21.40;99.90;;;;;;6187769;28;20273;-68
2022/07/04 10:48:49;;;;;;;1.83;1.73;;;21.30;99.90;;;;;;6187593;28;20274;-68
2022/07/04 10:51:57;;;;;;;4.20;1.60;;;21.10;99.90;;;;;;6187609;28;20278;-68
2022/07/04 10:55:13;;;;;;;1.92;1.80;;;21.00;99.90;;;;;;6187303;28;20270;-68
2022/07/04 10:58:39;;;;;;;2.60;1.80;;;20.90;99.90;;;;;;6187510;28;20569;-68
2022/07/04 11:01:53;;;;;;;3.60;2.08;;;21.00;99.90;;;;;;6187176;28;20289;-68
2022/07/04 11:05:32;;;;;;;1.90;1.88;;;21.00;99.90;;;;;;6172888;28;20267;-68
2022/07/04 11:09:14;;;;;;;2.28;2.17;;;20.90;99.90;;;;;;6163071;28;20307;-68
2022/07/04 11:12:19;;;;;;;2.10;2.05;;;21.00;99.90;;;;;;6163590;29;20443;-68
2022/07/04 11:16:05;;;;;;;2.10;2.10;;;21.10;99.90;;;;;;6163731;28;20270;-68
2022/07/04 11:19:15;;;;;;;2.40;2.30;;;21.40;99.90;;;;;;6167364;29;20279;-68
2022/07/04 11:22:24;;;;;;;3.05;2.00;;;21.50;99.90;;;;;;6167137;29;20275;-68
2022/07/04 11:25:29;;;;;;;2.33;2.10;;;21.70;99.90;;;;;;6167079;29;20279;-68
2022/07/04 11:28:36;;;;;;;2.03;1.80;;;21.70;99.90;;;;;;6167208;28;20275;-68
2022/07/04 11:31:54;;;;;;;1.75;1.60;;;21.70;99.90;;;;;;6167202;28;20275;-68
2022/07/04 11:34:59;;;;;;;2.60;1.98;;;21.80;99.90;;;;;;6167507;28;20290;-68
2022/07/04 11:38:05;;;;;;;1.55;1.55;;;21.80;99.90;;;;;;6167249;29;20273;-68
2022/07/04 11:48:23;;;;;;;1.65;1.65;;;21.60;99.90;;;;;;6133529;29;20278;-68
2022/07/04 11:51:28;;;;;;;1.70;1.60;;;21.30;99.90;;;;;;6167050;29;20279;-68
2022/07/04 11:54:33;;;;;;;1.60;1.50;;;21.10;99.90;;;;;;6166503;29;20290;-68
2022/07/04 11:57:57;;;;;;;4.22;1.50;;;20.90;99.90;;;;;;6166391;29;20274;-68
2022/07/04 12:01:03;;;;;;;3.60;1.80;;;20.70;99.90;;;;;;6166660;29;20279;-68
2022/07/04 12:04:17;;;;;;;10.40;4.75;;;20.40;99.90;;;;;;6166108;29;20270;-68
2022/07/04 12:07:26;;;;;;;6.80;3.08;;;20.20;99.90;;;;;;6166613;29;20275;-68
2022/07/04 12:10:31;;;;;;;5.75;2.35;;;20.10;99.90;;;;;;6185835;28;20613;-68
2022/07/04 12:13:37;;;;;;;11.25;2.85;;;20.10;99.90;;;;;;6189922;28;20298;-68
2022/07/04 12:16:42;;;;;;;7.18;3.17;;;19.90;99.90;;;;;;6190021;28;20294;-68
2022/07/04 12:19:58;;;;;;;5.82;2.25;;;19.80;99.90;;;;;;6189954;28;20286;-68
2022/07/04 12:23:03;;;;;;;6.43;2.90;;;19.70;99.90;;;;;;6190188;28;20275;-68
2022/07/04 12:26:10;;;;;;;10.82;3.33;;;19.40;99.90;;;;;;6189812;28;20274;-68
2022/07/04 12:29:23;;;;;;;5.47;2.47;;;19.40;99.90;;;;;;6189227;28;20274;-68
2022/07/04 12:32:52;;;;;;;7.57;2.90;;;19.20;99.90;;;;;;6189889;28;20428;-68
2022/07/04 12:36:00;;;;;;;4.85;2.45;;;19.20;99.90;;;;;;6189647;28;20313;-68
2022/07/04 12:39:07;;;;;;;8.63;2.63;;;19.20;99.90;;;;;;6189213;28;20530;-68
2022/07/04 12:42:15;;;;;;;3.65;2.47;;;19.20;99.90;;;;;;6189723;28;20274;-68
2022/07/04 12:45:20;;;;;;;3.08;2.80;;;19.50;99.90;;;;;;6188992;28;20282;-68
2022/07/04 12:48:28;;;;;;;5.93;2.55;;;19.70;99.90;;;;;;6189565;28;20273;-68
2022/07/04 12:51:35;;;;;;;3.95;2.60;;;20.00;99.90;;;;;;6172233;28;20286;-68
2022/07/04 12:54:41;;;;;;;2.30;2.10;;;20.20;99.90;;;;;;6189018;28;20294;-68
2022/07/04 12:57:46;;;;;;;2.25;2.17;;;20.30;99.90;;;;;;6189481;28;20521;-68
2022/07/04 13:00:51;;;;;;;4.43;2.20;;;20.30;99.90;;;;;;6189397;28;20273;-68
2022/07/04 13:03:57;;;;;;;2.00;1.90;;;20.50;99.90;;;;;;6185325;28;20270;-68
2022/07/04 13:07:15;;;;;;;2.20;2.10;;;20.60;99.90;;;;;;6165204;29;20274;-68
2022/07/04 13:10:21;;;;;;;2.20;2.00;;;20.80;99.90;;;;;;6164873;29;20298;-68
2022/07/04 13:13:26;;;;;;;4.88;1.90;;;20.90;99.90;;;;;;6164749;29;20266;-68
2022/07/04 13:16:31;;;;;;;2.20;2.10;;;20.90;99.90;;;;;;6165128;28;20294;-68
2022/07/04 13:19:42;;;;;;;1.77;1.75;;;21.10;99.90;;;;;;6164586;29;20274;-68
2022/07/04 13:22:49;;;;;;;2.00;1.95;;;21.30;99.90;;;;;;6165117;28;20274;-68
2022/07/04 13:25:54;;;;;;;1.73;1.73;;;21.30;99.90;;;;;;6165048;28;20278;-68
2022/07/04 13:29:01;;;;;;;2.20;2.10;;;21.30;99.90;;;;;;6164399;29;20581;-68
2022/07/04 13:32:07;;;;;;;1.92;1.90;;;21.40;99.90;;;;;;6164347;29;20274;-68
2022/07/04 13:35:16;;;;;;;4.03;2.03;;;21.50;99.90;;;;;;6164577;29;20492;-68
2022/07/04 13:38:22;;;;;;;3.15;2.10;;;21.50;99.90;;;;;;6164029;28;20283;-68
2022/07/04 13:41:28;;;;;;;2.33;2.28;;;21.50;99.90;;;;;;6164544;29;20278;-68
2022/07/04 13:44:33;;;;;;;2.60;2.45;;;21.40;99.90;;;;;;6164564;29;20283;-68
2022/07/04 13:47:38;;;;;;;2.17;2.05;;;21.60;99.90;;;;;;6163948;29;20274;-68
2022/07/04 13:50:44;;;;;;;2.35;2.25;;;21.80;99.90;;;;;;6164120;29;20274;-68
2022/07/04 13:53:50;;;;;;;2.70;2.60;;;21.90;99.90;;;;;;6164518;28;20274;-68
2022/07/04 13:56:56;;;;;;;2.50;2.40;;;22.00;99.90;;;;;;6164451;28;20322;-68
2022/07/04 14:00:02;;;;;;;3.13;2.95;;;22.30;99.90;;;;;;6164446;29;20274;-68
2022/07/04 14:03:15;;;;;;;3.10;2.75;;;22.20;99.90;;;;;;6164432;29;20278;-68
2022/07/04 14:06:21;;;;;;;3.20;3.00;;;22.20;99.90;;;;;;6164451;29;20270;-68
2022/07/04 14:09:27;;;;;;;3.20;3.00;;;22.00;99.90;;;;;;6174728;28;20299;-68
2022/07/04 14:12:32;;;;;;;5.20;3.10;;;22.00;99.90;;;;;;6188031;28;20559;-68
2022/07/04 14:15:37;;;;;;;3.00;2.85;;;21.90;99.90;;;;;;6188027;28;20474;-68
2022/07/04 14:18:43;;;;;;;3.80;3.00;;;21.80;99.90;;;;;;6187780;28;20273;-68
2022/07/04 14:21:51;;;;;;;4.22;2.88;;;21.90;99.90;;;;;;6188028;28;20278;-68
2022/07/04 14:24:58;;;;;;;3.20;2.90;;;21.90;99.90;;;;;;6170777;28;20459;-68
2022/07/04 14:28:04;;;;;;;2.78;2.67;;;21.90;99.90;;;;;;6187936;28;20274;-68
2022/07/04 14:31:12;;;;;;;2.92;2.83;;;21.80;99.90;;;;;;6187539;28;20270;-68
2022/07/04 14:34:17;;;;;;;3.40;1.55;;;21.80;99.90;;;;;;6187978;28;20540;-68
2022/07/04 14:37:23;;;;;;;1.90;1.77;;;21.90;99.90;;;;;;6187616;28;20294;-68
2022/07/04 14:40:29;;;;;;;1.67;1.27;;;21.70;99.90;;;;;;6187743;28;20278;-68
2022/07/04 14:43:35;;;;;;;4.18;1.30;;;21.60;99.90;;;;;;6187602;28;20278;-68
2022/07/04 14:46:40;;;;;;;2.05;1.20;;;21.50;99.90;;;;;;6187471;28;20282;-68
2022/07/04 14:49:45;;;;;;;1.90;1.80;;;21.40;99.90;;;;;;6187654;28;20270;-68
2022/07/04 14:52:51;;;;;;;1.73;1.73;;;21.50;99.90;;;;;;6192293;28;20277;-68
2022/07/04 14:55:58;;;;;;;1.42;1.35;;;21.40;99.90;;;;;;6192089;28;20298;-68
2022/07/04 14:59:04;;;;;;;1.20;1.20;;;21.30;99.90;;;;;;6191914;28;20274;-68
2022/07/04 15:02:09;;;;;;;3.10;1.20;;;21.20;99.90;;;;;;6191441;28;20273;-68
2022/07/04 15:05:14;;;;;;;1.30;1.30;;;21.10;99.90;;;;;;6177780;28;20433;-68
2022/07/04 15:08:20;;;;;;;2.00;1.35;;;21.10;99.90;;;;;;6167690;28;20283;-68
2022/07/04 15:11:26;;;;;;;2.10;1.42;;;21.00;99.90;;;;;;6167197;29;20278;-68
2022/07/04 15:14:31;;;;;;;1.63;1.52;;;20.90;99.90;;;;;;6167481;29;20363;-68
2022/07/04 15:17:37;;;;;;;2.47;1.45;;;20.70;99.90;;;;;;6167953;28;20294;-68
2022/07/04 15:24:15;;;;;;;1.23;1.20;;;20.60;99.90;;;;;;6167716;28;20274;-68
2022/07/04 15:27:21;;;;;;;1.50;1.50;;;20.60;99.90;;;;;;6167611;29;20274;-68
2022/07/04 15:30:27;;;;;;;1.67;1.67;;;20.50;99.90;;;;;;6167462;29;20279;-68
2022/07/04 15:33:32;;;;;;;3.50;1.75;;;20.50;99.90;;;;;;6167355;28;20280;-68
2022/07/04 15:36:37;;;;;;;2.33;1.60;;;20.60;99.90;;;;;;6167080;28;20488;-68
2022/07/04 15:39:42;;;;;;;1.30;1.30;;;20.40;99.90;;;;;;6167396;29;20275;-68
2022/07/04 15:42:49;;;;;;;1.38;1.38;;;20.40;99.90;;;;;;6167515;28;20561;-68
2022/07/04 15:45:58;;;;;;;1.75;1.65;;;20.40;99.90;;;;;;6166773;29;20354;-68
2022/07/04 15:49:03;;;;;;;2.97;1.73;;;20.30;99.90;;;;;;6167223;29;20275;-68
2022/07/04 15:52:22;;;;;;;1.70;1.70;;;20.20;99.90;;;;;;6166394;29;20291;-68
2022/07/04 15:55:27;;;;;;;2.38;2.10;;;20.10;99.90;;;;;;6166453;29;20554;-68
2022/07/04 15:58:34;;;;;;;2.28;1.40;;;20.10;99.90;;;;;;6166972;28;20298;-68
2022/07/04 16:01:39;;;;;;;3.13;1.80;;;20.10;99.90;;;;;;6166282;28;20274;-68
2022/07/04 16:04:45;;;;;;;2.20;2.10;;;20.00;99.90;;;;;;6166283;29;20433;-68
2022/07/04 16:07:50;;;;;;;1.70;1.60;;;20.10;99.90;;;;;;6166213;28;20277;-68
2022/07/04 16:10:55;;;;;;;2.72;1.92;;;19.80;99.90;;;;;;6190080;28;20314;-68
2022/07/04 16:14:01;;;;;;;2.05;2.00;;;19.60;99.90;;;;;;6190417;28;20274;-68
2022/07/04 16:17:07;;;;;;;2.20;2.10;;;19.80;99.90;;;;;;6189990;28;20295;-68
2022/07/04 16:20:12;;;;;;;2.30;2.20;;;19.80;99.90;;;;;;6190443;28;20274;-68
2022/07/04 16:23:17;;;;;;;1.77;1.77;;;19.70;99.90;;;;;;6189893;28;20361;-67
2022/07/04 16:26:23;;;;;;;2.22;2.13;;;19.80;99.90;;;;;;6190268;28;20280;-67
2022/07/04 16:29:29;;;;;;;1.65;1.65;;;19.70;99.90;;;;;;6189778;28;20294;-68
2022/07/04 16:32:36;;;;;;;2.03;2.03;;;19.70;99.90;;;;;;6189867;28;20273;-67
2022/07/04 16:35:42;;;;;;;2.53;1.95;;;19.50;99.90;;;;;;6189995;28;20277;-67
2022/07/04 16:38:49;;;;;;;2.00;1.95;;;19.40;99.90;;;;;;6189896;28;20461;-67